createdAt,value
2022-09-26T00:02:18.594Z,8.62
2022-09-26T00:04:45.149Z,8.61
2022-09-26T00:07:11.591Z,8.58
2022-09-26T00:09:37.971Z,8.47
2022-09-26T00:12:04.414Z,8.47
2022-09-26T00:14:30.830Z,8.47
2022-09-26T00:16:57.351Z,8.47
2022-09-26T00:19:24.439Z,8.50
2022-09-26T00:21:50.923Z,8.47
2022-09-26T00:24:17.477Z,8.49
2022-09-26T00:26:43.863Z,8.51
2022-09-26T00:29:11.256Z,8.56
2022-09-26T00:31:44.246Z,8.58
2022-09-26T00:34:12.445Z,8.57
2022-09-26T00:36:39.192Z,8.52
2022-09-26T00:39:07.499Z,8.52
2022-09-26T00:41:34.031Z,8.55
2022-09-26T00:44:00.693Z,8.56
2022-09-26T00:46:31.347Z,8.54
2022-09-26T00:49:34.071Z,8.56
2022-09-26T00:52:08.805Z,8.57
2022-09-26T00:54:35.397Z,8.55
2022-09-26T00:57:04.804Z,8.57
2022-09-26T00:59:36.212Z,8.59
2022-09-26T01:02:04.496Z,8.62
2022-09-26T01:04:32.099Z,8.68
2022-09-26T01:06:59.333Z,8.73
2022-09-26T01:09:26.238Z,8.79
2022-09-26T01:11:53.543Z,8.90
2022-09-26T01:14:19.950Z,8.90
2022-09-26T01:16:47.983Z,8.86
2022-09-26T01:19:31.662Z,8.84
2022-09-26T01:22:19.646Z,8.78
2022-09-26T01:25:04.296Z,8.88
2022-09-26T01:27:57.954Z,8.88
2022-09-26T01:30:28.393Z,8.88
2022-09-26T01:33:32.456Z,8.96
2022-09-26T01:36:46.998Z,9.06
2022-09-26T01:39:29.482Z,9.12
2022-09-26T01:42:04.506Z,9.17
2022-09-26T01:44:34.498Z,9.11
2022-09-26T01:47:19.180Z,9.02
2022-09-26T01:49:57.546Z,8.98
2022-09-26T01:52:55.304Z,8.96
2022-09-26T01:55:28.059Z,8.97
2022-09-26T01:58:03.515Z,9.00
2022-09-26T02:00:30.118Z,9.04
2022-09-26T02:02:56.562Z,9.07
2022-09-26T02:05:35.416Z,9.08
2022-09-26T02:08:29.810Z,9.03
2022-09-26T02:11:02.027Z,9.07
2022-09-26T02:13:37.410Z,9.14
2022-09-26T02:16:09.200Z,9.19
2022-09-26T02:18:39.482Z,9.23
2022-09-26T02:21:19.136Z,9.24
2022-09-26T02:23:46.989Z,9.24
2022-09-26T02:26:13.386Z,9.25
2022-09-26T02:28:39.778Z,9.25
2022-09-26T02:31:08.323Z,9.25
2022-09-26T02:33:35.726Z,9.25
2022-09-26T02:36:07.465Z,9.29
2022-09-26T02:38:34.631Z,9.37
2022-09-26T02:41:09.066Z,9.39
2022-09-26T02:44:01.986Z,9.44
2022-09-26T02:46:39.639Z,9.49
2022-09-26T02:49:24.572Z,9.55
2022-09-26T02:51:59.978Z,9.57
2022-09-26T02:54:32.249Z,9.58
2022-09-26T02:57:01.598Z,9.57
2022-09-26T02:59:36.496Z,9.67
2022-09-26T03:02:02.870Z,9.66
2022-09-26T03:04:52.193Z,9.66
2022-09-26T03:07:26.847Z,9.69
2022-09-26T03:09:53.234Z,9.72
2022-09-26T03:12:19.725Z,9.75
2022-09-26T03:14:46.104Z,9.75
2022-09-26T03:17:12.484Z,9.78
2022-09-26T03:19:53.821Z,9.78
2022-09-26T03:22:20.615Z,9.82
2022-09-26T03:24:47.061Z,9.86
2022-09-26T03:27:13.542Z,9.85
2022-09-26T03:29:39.995Z,9.83
2022-09-26T03:32:06.712Z,9.85
2022-09-26T03:34:33.479Z,9.87
2022-09-26T03:36:59.859Z,9.82
2022-09-26T03:39:26.287Z,9.88
2022-09-26T03:41:53.662Z,9.88
2022-09-26T03:44:20.504Z,9.87
2022-09-26T03:46:47.269Z,9.87
2022-09-26T03:49:13.753Z,9.89
2022-09-26T03:51:40.233Z,9.95
2022-09-26T03:54:06.709Z,9.92
2022-09-26T03:56:33.205Z,9.92
2022-09-26T03:58:59.577Z,9.94
2022-09-26T04:01:26.522Z,9.95
2022-09-26T04:03:52.967Z,9.99
2022-09-26T04:06:20.225Z,10.06
2022-09-26T04:08:48.416Z,10.07
2022-09-26T04:11:16.118Z,10.12
2022-09-26T04:13:52.754Z,10.09
2022-09-26T04:16:20.615Z,10.10
2022-09-26T04:18:47.178Z,10.10
2022-09-26T04:21:16.727Z,10.09
2022-09-26T04:23:43.657Z,10.07
2022-09-26T04:26:18.720Z,10.10
2022-09-26T04:28:50.956Z,10.14
2022-09-26T04:31:17.477Z,10.11
2022-09-26T04:33:43.877Z,10.14
2022-09-26T04:36:14.164Z,10.19
2022-09-26T04:38:41.125Z,10.19
2022-09-26T04:41:09.470Z,10.19
2022-09-26T04:43:35.980Z,10.19
2022-09-26T04:46:06.022Z,10.19
2022-09-26T04:48:32.483Z,10.20
2022-09-26T04:50:58.878Z,10.24
2022-09-26T04:53:25.246Z,10.22
2022-09-26T04:55:54.339Z,10.21
2022-09-26T04:58:20.791Z,10.25
2022-09-26T05:00:50.291Z,10.27
2022-09-26T05:03:16.933Z,10.31
2022-09-26T05:05:50.473Z,10.34
2022-09-26T05:08:17.000Z,10.37
2022-09-26T05:10:43.492Z,10.31
2022-09-26T05:13:10.315Z,10.32
2022-09-26T05:15:39.844Z,10.33
2022-09-26T05:18:07.750Z,10.32
2022-09-26T05:20:45.420Z,10.36
2022-09-26T05:23:11.804Z,10.34
2022-09-26T05:25:57.993Z,10.36
2022-09-26T05:28:25.066Z,10.39
2022-09-26T05:30:51.936Z,10.38
2022-09-26T05:33:21.709Z,10.41
2022-09-26T05:35:53.325Z,10.40
2022-09-26T05:38:19.745Z,10.40
2022-09-26T05:40:58.258Z,10.45
2022-09-26T05:43:26.866Z,10.43
2022-09-26T05:46:00.834Z,10.42
2022-09-26T05:48:27.227Z,10.47
2022-09-26T05:50:53.642Z,10.43
2022-09-26T05:53:20.077Z,10.42
2022-09-26T05:55:52.407Z,10.48
2022-09-26T05:58:18.945Z,10.49
2022-09-26T06:00:48.949Z,10.49
2022-09-26T06:03:15.533Z,10.52
2022-09-26T06:05:42.546Z,10.55
2022-09-26T06:08:09.893Z,10.56
2022-09-26T06:10:37.666Z,10.58
2022-09-26T06:13:04.245Z,10.62
2022-09-26T06:15:30.605Z,10.68
2022-09-26T06:18:00.725Z,10.67
2022-09-26T06:20:27.290Z,10.70
2022-09-26T06:22:55.106Z,10.74
2022-09-26T06:25:21.580Z,10.71
2022-09-26T06:27:48.795Z,10.74
2022-09-26T06:30:16.292Z,10.77
2022-09-26T06:32:42.718Z,10.84
2022-09-26T06:35:09.383Z,10.87
2022-09-26T06:37:35.792Z,10.93
2022-09-26T06:40:02.201Z,10.94
2022-09-26T06:42:37.897Z,10.94
2022-09-26T06:45:06.581Z,10.97
2022-09-26T06:47:33.636Z,11.07
2022-09-26T06:50:00.119Z,11.08
2022-09-26T06:52:26.864Z,11.20
2022-09-26T06:54:55.305Z,11.17
2022-09-26T06:57:21.863Z,11.27
2022-09-26T06:59:48.686Z,11.32
2022-09-26T07:02:16.725Z,11.32
2022-09-26T07:04:43.208Z,11.38
2022-09-26T07:07:09.584Z,11.46
2022-09-26T07:09:35.985Z,11.48
2022-09-26T07:12:17.956Z,11.48
2022-09-26T07:14:44.417Z,11.52
2022-09-26T07:17:14.319Z,11.52
2022-09-26T07:19:40.855Z,11.58
2022-09-26T07:22:08.005Z,11.61
2022-09-26T07:24:34.958Z,11.55
2022-09-26T07:27:02.059Z,11.57
2022-09-26T07:29:28.738Z,11.60
2022-09-26T07:31:55.501Z,11.60
2022-09-26T07:34:24.884Z,11.64
2022-09-26T07:36:51.917Z,11.64
2022-09-26T07:39:18.539Z,11.67
2022-09-26T07:41:46.157Z,11.62
2022-09-26T07:47:18.259Z,11.65
2022-09-26T07:50:02.825Z,11.69
2022-09-26T07:52:29.285Z,11.72
2022-09-26T07:54:55.643Z,11.72
2022-09-26T07:57:22.101Z,11.75
2022-09-26T07:59:50.365Z,11.79
2022-09-26T08:02:24.591Z,11.85
2022-09-26T08:04:51.345Z,11.90
2022-09-26T08:07:17.732Z,11.95
2022-09-26T08:09:44.165Z,12.02
2022-09-26T08:12:10.944Z,12.05
2022-09-26T08:14:37.509Z,12.12
2022-09-26T08:17:04.014Z,12.19
2022-09-26T08:19:30.472Z,12.24
2022-09-26T08:21:58.981Z,12.34
2022-09-26T08:24:25.352Z,12.42
2022-09-26T08:26:54.715Z,12.49
2022-09-26T08:29:23.476Z,12.52
2022-09-26T08:31:51.365Z,12.49
2022-09-26T08:34:22.669Z,12.46
2022-09-26T08:36:54.799Z,12.40
2022-09-26T08:39:21.814Z,12.50
2022-09-26T08:41:52.128Z,12.57
2022-09-26T08:44:25.150Z,12.60
2022-09-26T08:47:21.467Z,12.58
2022-09-26T08:50:00.170Z,12.66
2022-09-26T08:52:36.650Z,12.75
2022-09-26T08:55:07.679Z,12.86
2022-09-26T08:57:37.048Z,12.97
2022-09-26T09:00:09.913Z,13.12
2022-09-26T09:02:44.446Z,13.18
2022-09-26T09:05:32.933Z,13.27
2022-09-26T09:08:00.140Z,13.29
2022-09-26T09:10:46.572Z,13.35
2022-09-26T09:13:24.944Z,13.30
2022-09-26T09:16:00.642Z,13.34
2022-09-26T09:18:33.225Z,13.38
2022-09-26T09:21:38.024Z,13.45
2022-09-26T09:24:29.110Z,13.46
2022-09-26T09:29:54.061Z,13.70
2022-09-26T09:32:21.728Z,13.71
2022-09-26T09:34:53.680Z,13.72
2022-09-26T09:37:25.734Z,13.78
2022-09-26T09:39:52.138Z,13.90
2022-09-26T09:42:44.185Z,13.96
2022-09-26T09:45:30.911Z,14.10
2022-09-26T09:47:57.305Z,14.18
2022-09-26T09:50:30.551Z,14.29
2022-09-26T09:53:28.751Z,14.38
2022-09-26T09:56:06.291Z,14.48
2022-09-26T09:58:47.840Z,14.52
2022-09-26T10:01:26.148Z,14.56
2022-09-26T10:04:01.296Z,14.64
2022-09-26T10:06:46.579Z,14.71
2022-09-26T10:09:39.975Z,14.64
2022-09-26T10:12:16.180Z,14.63
2022-09-26T10:15:03.960Z,14.68
2022-09-26T10:17:31.082Z,14.68
2022-09-26T10:19:57.494Z,14.68
2022-09-26T10:22:32.689Z,14.79
2022-09-26T10:25:18.660Z,14.78
2022-09-26T10:27:50.050Z,14.80
2022-09-26T10:30:19.451Z,14.87
2022-09-26T10:32:55.456Z,14.98
2022-09-26T10:35:42.509Z,15.03
2022-09-26T10:38:22.626Z,15.06
2022-09-26T10:40:55.204Z,15.07
2022-09-26T10:43:21.897Z,14.93
2022-09-26T10:46:16.669Z,15.02
2022-09-26T10:48:49.276Z,15.12
2022-09-26T10:51:20.259Z,15.07
2022-09-26T10:53:48.567Z,15.05
2022-09-26T10:56:23.058Z,15.14
2022-09-26T10:58:52.089Z,15.14
2022-09-26T11:01:22.826Z,15.21
2022-09-26T11:03:49.374Z,15.21
2022-09-26T11:06:35.120Z,15.31
2022-09-26T11:09:03.190Z,15.34
2022-09-26T11:11:33.186Z,15.36
2022-09-26T11:14:08.361Z,15.33
2022-09-26T11:16:43.963Z,15.29
2022-09-26T11:19:15.538Z,15.60
2022-09-26T11:21:47.331Z,15.66
2022-09-26T11:24:22.077Z,15.69
2022-09-26T11:27:10.212Z,15.64
2022-09-26T11:32:38.774Z,15.40
2022-09-26T11:40:55.746Z,15.49
2022-09-26T11:43:45.591Z,15.62
2022-09-26T11:46:49.446Z,15.73
2022-09-26T11:49:23.227Z,15.77
2022-09-26T11:52:08.387Z,15.96
2022-09-26T11:54:42.756Z,16.13
2022-09-26T11:57:38.352Z,16.37
2022-09-26T12:00:27.633Z,16.31
2022-09-26T12:03:19.812Z,16.11
2022-09-26T12:05:54.149Z,15.83
2022-09-26T12:08:32.686Z,15.78
2022-09-26T12:11:00.374Z,15.71
2022-09-26T12:13:34.985Z,15.65
2022-09-26T12:16:29.310Z,15.73
2022-09-26T12:19:14.126Z,15.69
2022-09-26T12:22:02.563Z,15.69
2022-09-26T12:24:35.648Z,15.60
2022-09-26T12:27:11.525Z,15.67
2022-09-26T12:29:53.773Z,15.65
2022-09-26T12:32:29.360Z,15.71
2022-09-26T12:35:08.147Z,15.71
2022-09-26T12:38:02.867Z,15.65
2022-09-26T12:40:38.989Z,15.60
2022-09-26T12:43:13.964Z,15.44
2022-09-26T12:46:03.413Z,15.38
2022-09-26T12:48:58.839Z,15.41
2022-09-26T12:51:38.618Z,15.37
2022-09-26T12:54:23.856Z,15.37
2022-09-26T12:56:50.391Z,15.32
2022-09-26T12:59:39.892Z,15.11
2022-09-26T13:02:25.752Z,15.18
2022-09-26T13:05:11.903Z,15.11
2022-09-26T13:07:42.186Z,14.95
2022-09-26T13:10:21.948Z,14.88
2022-09-26T13:12:57.421Z,14.80
2022-09-26T13:15:46.445Z,14.73
2022-09-26T13:18:20.920Z,14.69
2022-09-26T13:20:56.280Z,14.66
2022-09-26T13:23:30.037Z,14.61
2022-09-26T13:25:59.717Z,14.62
2022-09-26T13:28:33.693Z,14.46
2022-09-26T13:31:03.203Z,14.52
2022-09-26T13:33:39.596Z,14.50
2022-09-26T13:36:09.390Z,14.62
2022-09-26T13:38:53.137Z,14.67
2022-09-26T13:41:32.524Z,14.70
2022-09-26T13:44:19.492Z,14.66
2022-09-26T13:47:07.627Z,14.61
2022-09-26T13:49:42.811Z,14.48
2022-09-26T13:52:21.337Z,14.34
2022-09-26T13:55:02.238Z,14.21
2022-09-26T13:57:31.893Z,14.22
2022-09-26T13:59:58.577Z,14.05
2022-09-26T14:02:28.430Z,14.04
2022-09-26T14:05:13.508Z,14.05
2022-09-26T14:07:58.692Z,13.79
2022-09-26T14:10:25.121Z,13.78
2022-09-26T14:13:03.288Z,13.80
2022-09-26T14:15:51.025Z,13.82
2022-09-26T14:18:20.242Z,13.78
2022-09-26T14:21:01.506Z,13.84
2022-09-26T14:23:37.519Z,13.75
2022-09-26T14:26:21.147Z,13.71
2022-09-26T14:28:54.942Z,13.64
2022-09-26T14:31:24.921Z,13.66
2022-09-26T14:34:17.468Z,13.69
2022-09-26T14:36:44.529Z,13.70
2022-09-26T14:39:23.415Z,13.69
2022-09-26T14:41:49.819Z,13.73
2022-09-26T14:44:17.827Z,13.73
2022-09-26T14:46:44.311Z,13.63
2022-09-26T14:49:25.168Z,13.62
2022-09-26T14:51:58.720Z,13.59
2022-09-26T14:54:43.830Z,13.52
2022-09-26T14:57:21.174Z,13.53
2022-09-26T14:59:47.809Z,13.53
2022-09-26T15:02:14.348Z,13.48
2022-09-26T15:04:44.285Z,13.44
2022-09-26T15:07:24.684Z,13.41
2022-09-26T15:10:36.700Z,13.36
2022-09-26T15:13:09.618Z,13.36
2022-09-26T15:15:42.143Z,13.35
2022-09-26T15:18:31.428Z,13.28
2022-09-26T15:21:04.625Z,13.27
2022-09-26T15:23:33.152Z,13.25
2022-09-26T15:26:02.548Z,13.13
2022-09-26T15:28:31.654Z,13.11
2022-09-26T15:31:37.497Z,13.08
2022-09-26T15:34:09.190Z,13.12
2022-09-26T15:36:36.181Z,13.12
2022-09-26T15:39:25.845Z,13.13
2022-09-26T15:42:10.789Z,13.19
2022-09-26T15:44:37.199Z,13.19
2022-09-26T15:47:35.127Z,13.20
2022-09-26T15:50:21.183Z,13.30
2022-09-26T15:53:16.962Z,13.34
2022-09-26T15:55:52.295Z,13.28
2022-09-26T15:58:23.166Z,13.27
2022-09-26T16:00:51.378Z,13.31
2022-09-26T16:03:27.196Z,13.27
2022-09-26T16:05:53.873Z,13.31
2022-09-26T16:08:21.713Z,13.27
2022-09-26T16:10:56.190Z,13.22
2022-09-26T16:13:25.422Z,13.21
2022-09-26T16:16:06.071Z,13.24
2022-09-26T16:18:40.164Z,13.30
2022-09-26T16:21:20.875Z,13.30
2022-09-26T16:23:49.167Z,13.30
2022-09-26T16:26:31.655Z,13.31
2022-09-26T16:28:59.413Z,13.34
2022-09-26T16:31:28.648Z,13.29
2022-09-26T16:33:56.774Z,13.29
2022-09-26T16:36:30.896Z,13.28
2022-09-26T16:39:05.372Z,13.27
2022-09-26T16:44:40.314Z,13.26
2022-09-26T16:47:29.432Z,13.29
2022-09-26T16:49:55.874Z,13.24
2022-09-26T16:52:32.744Z,13.25
2022-09-26T16:55:00.575Z,13.23
2022-09-26T16:57:34.697Z,13.20
2022-09-26T17:00:22.259Z,13.21
2022-09-26T17:02:48.816Z,13.21
2022-09-26T17:05:20.168Z,13.20
2022-09-26T17:07:47.743Z,13.18
2022-09-26T17:10:14.541Z,13.16
2022-09-26T17:12:41.013Z,13.16
2022-09-26T17:15:08.788Z,13.15
2022-09-26T17:17:35.229Z,13.10
2022-09-26T17:20:01.961Z,13.14
2022-09-26T17:22:28.454Z,13.14
2022-09-26T17:24:54.951Z,13.09
2022-09-26T17:27:22.662Z,13.12
2022-09-26T17:29:50.157Z,13.11
2022-09-26T17:32:29.326Z,13.08
2022-09-26T17:35:17.031Z,13.10
2022-09-26T17:37:43.446Z,13.12
2022-09-26T17:40:19.110Z,13.13
2022-09-26T17:42:46.013Z,13.14
2022-09-26T17:45:12.440Z,13.13
2022-09-26T17:47:39.211Z,13.11
2022-09-26T17:50:06.643Z,13.11
2022-09-26T17:52:33.253Z,13.10
2022-09-26T17:55:02.209Z,13.06
2022-09-26T17:57:30.241Z,13.04
2022-09-26T17:59:57.252Z,13.05
2022-09-26T18:02:30.966Z,13.00
2022-09-26T18:04:59.141Z,13.04
2022-09-26T18:07:31.279Z,12.99
2022-09-26T18:09:58.926Z,12.97
2022-09-26T18:12:25.541Z,12.99
2022-09-26T18:14:51.987Z,13.00
2022-09-26T18:17:18.567Z,12.98
2022-09-26T18:19:45.097Z,12.98
2022-09-26T18:22:15.585Z,12.98
2022-09-26T18:24:42.060Z,12.92
2022-09-26T18:27:10.787Z,12.89
2022-09-26T18:29:38.527Z,12.89
2022-09-26T18:32:06.415Z,12.87
2022-09-26T18:34:32.886Z,12.83
2022-09-26T18:37:00.526Z,12.81
2022-09-26T18:39:27.546Z,12.70
2022-09-26T18:42:00.920Z,12.70
2022-09-26T18:44:27.441Z,12.66
2022-09-26T18:46:58.231Z,12.63
2022-09-26T18:49:29.763Z,12.60
2022-09-26T18:51:56.165Z,12.57
2022-09-26T18:54:24.615Z,12.59
2022-09-26T18:57:09.737Z,12.59
2022-09-26T18:59:36.139Z,12.58
2022-09-26T19:02:04.917Z,12.54
2022-09-26T19:04:31.518Z,12.54
2022-09-26T19:07:00.759Z,12.52
2022-09-26T19:09:31.324Z,12.49
2022-09-26T19:11:57.744Z,12.49
2022-09-26T19:14:25.753Z,12.49
2022-09-26T19:16:52.238Z,12.39
2022-09-26T19:19:18.762Z,12.42
2022-09-26T19:21:59.297Z,12.44
2022-09-26T19:24:36.320Z,12.42
2022-09-26T19:27:06.470Z,12.41
2022-09-26T19:29:43.805Z,12.46
2022-09-26T19:32:23.706Z,12.47
2022-09-26T19:34:52.910Z,12.50
2022-09-26T19:37:19.370Z,12.50
2022-09-26T19:39:45.776Z,12.52
2022-09-26T19:42:12.296Z,12.48
2022-09-26T19:44:38.701Z,12.46
2022-09-26T19:47:05.184Z,12.49
2022-09-26T19:49:32.098Z,12.48
2022-09-26T19:52:01.214Z,12.44
2022-09-26T19:54:27.641Z,12.46
2022-09-26T19:56:54.089Z,12.45
2022-09-26T19:59:24.037Z,12.47
2022-09-26T20:01:53.165Z,12.49
2022-09-26T20:04:19.621Z,12.54
2022-09-26T20:06:46.629Z,12.51
2022-09-26T20:09:18.060Z,12.51
2022-09-26T20:11:44.671Z,12.53
2022-09-26T20:14:23.163Z,12.55
2022-09-26T20:16:50.566Z,12.57
2022-09-26T20:19:32.366Z,12.61
2022-09-26T20:21:59.940Z,12.62
2022-09-26T20:24:26.757Z,12.64
2022-09-26T20:26:53.164Z,12.65
2022-09-26T20:29:19.595Z,12.70
2022-09-26T20:31:47.304Z,12.72
2022-09-26T20:34:17.007Z,12.73
2022-09-26T20:36:48.843Z,12.74
2022-09-26T20:39:18.231Z,12.71
2022-09-26T20:41:44.674Z,12.68
2022-09-26T20:44:12.651Z,12.70
2022-09-26T20:46:40.436Z,12.72
2022-09-26T20:49:08.707Z,12.72
2022-09-26T20:51:35.171Z,12.67
2022-09-26T20:54:02.410Z,12.69
2022-09-26T20:56:28.921Z,12.67
2022-09-26T20:58:55.304Z,12.66
2022-09-26T21:01:22.053Z,12.63
2022-09-26T21:03:52.801Z,12.64
2022-09-26T21:06:23.691Z,12.61
2022-09-26T21:08:50.261Z,12.62
2022-09-26T21:11:18.901Z,12.65
2022-09-26T21:13:45.343Z,12.59
2022-09-26T21:16:15.764Z,12.58
2022-09-26T21:18:43.347Z,12.56
2022-09-26T21:21:16.347Z,12.55
2022-09-26T21:23:42.844Z,12.54
2022-09-26T21:26:19.611Z,12.56
2022-09-26T21:28:46.381Z,12.57
2022-09-26T21:31:39.134Z,12.60
2022-09-26T21:34:05.520Z,12.58
2022-09-26T21:36:35.840Z,12.54
2022-09-26T21:39:02.354Z,12.51
2022-09-26T21:41:29.326Z,12.44
2022-09-26T21:43:58.402Z,12.45
2022-09-26T21:46:27.011Z,12.47
2022-09-26T21:48:53.484Z,12.44
2022-09-26T21:51:20.598Z,12.47
2022-09-26T21:53:49.495Z,12.43
2022-09-26T21:56:20.013Z,12.45
2022-09-26T21:58:46.423Z,12.48
2022-09-26T22:01:14.179Z,12.45
2022-09-26T22:03:41.308Z,12.45
2022-09-26T22:06:09.311Z,12.41
2022-09-26T22:08:36.899Z,12.42
2022-09-26T22:11:03.665Z,12.41
2022-09-26T22:13:30.135Z,12.39
2022-09-26T22:15:56.572Z,12.40
2022-09-26T22:18:22.983Z,12.40
2022-09-26T22:20:58.443Z,12.40
2022-09-26T22:23:24.837Z,12.40
2022-09-26T22:25:51.680Z,12.41
2022-09-26T22:28:18.100Z,12.40
2022-09-26T22:30:44.607Z,12.39
2022-09-26T22:33:11.275Z,12.40
2022-09-26T22:35:37.673Z,12.35
2022-09-26T22:38:04.099Z,12.38
2022-09-26T22:40:30.560Z,12.38
2022-09-26T22:42:57.003Z,12.40
2022-09-26T22:45:23.405Z,12.33
2022-09-26T22:47:49.785Z,12.30
2022-09-26T22:50:16.203Z,12.23
2022-09-26T22:52:42.604Z,12.17
2022-09-26T22:55:09.201Z,12.11
2022-09-26T22:57:35.954Z,12.02
2022-09-26T23:00:03.932Z,12.01
2022-09-26T23:02:30.418Z,11.92
2022-09-26T23:04:56.835Z,11.88
2022-09-26T23:07:23.304Z,11.81
2022-09-26T23:09:49.707Z,11.71
2022-09-26T23:12:16.169Z,11.72
2022-09-26T23:14:42.605Z,11.73
2022-09-26T23:17:09.071Z,11.71
2022-09-26T23:19:35.524Z,11.61
2022-09-26T23:22:01.994Z,11.55
2022-09-26T23:24:28.393Z,11.53
2022-09-26T23:26:57.003Z,11.39
2022-09-26T23:29:23.412Z,11.36
2022-09-26T23:31:50.898Z,11.30
2022-09-26T23:34:17.478Z,11.27
2022-09-26T23:36:44.396Z,11.24
2022-09-26T23:39:10.990Z,11.21
2022-09-26T23:41:37.423Z,11.19
2022-09-26T23:44:03.867Z,11.25
2022-09-26T23:46:30.314Z,11.13
2022-09-26T23:48:56.837Z,11.17
2022-09-26T23:51:23.237Z,11.18
2022-09-26T23:53:49.663Z,11.23
2022-09-26T23:56:16.860Z,11.24
2022-09-26T23:58:43.679Z,11.19
